Terminal Aerodrome Forecast
Issued by NWS

Home | Current Version | Previous Version | Text Only | Print | Product List | Glossary Off
Versions: 1 2 3 4 5 6 7 8 9 10 11 12 13 14 15 16 17 18

000
FTUS43 KGRB 270500
TAFATW
TAF
KATW 270530Z 2706/2806 29004KT P6SM BKN250
     FM271000 VRB03KT P6SM BKN100
      TEMPO 2711/2714 6SM -SHRA SCT040 BKN070
     FM271500 32005KT P6SM SCT040 BKN120
     FM272100 02007KT P6SM SCT045
     FM280000 VRB03KT P6SM SCT250=

USA.gov is the U.S. government's official web portal to all federal, state and local government web resources and services.